createdAt,value
2022-09-16T06:14:38.530Z,14.58
2022-09-16T06:24:38.559Z,15.02
2022-09-16T06:34:38.712Z,14.52
2022-09-16T06:44:38.491Z,15.72
2022-09-16T06:54:38.601Z,14.31
2022-09-16T07:04:38.600Z,15.40
2022-09-16T07:14:38.683Z,16.97
2022-09-16T07:24:38.731Z,15.95
2022-09-16T07:34:38.671Z,18.16
2022-09-16T07:44:38.431Z,18.11
2022-09-16T07:54:38.638Z,17.70
2022-09-16T08:04:38.499Z,17.63
2022-09-16T08:14:38.599Z,20.44
2022-09-16T08:24:38.441Z,15.24
2022-09-16T08:34:38.850Z,14.26
2022-09-16T08:44:38.710Z,18.75
2022-09-16T08:54:39.150Z,19.46
2022-09-16T09:04:38.840Z,17.81
2022-09-16T09:14:39.104Z,13.30
2022-09-16T09:24:39.171Z,15.67
2022-09-16T09:34:41.657Z,14.67
2022-09-16T09:44:39.036Z,15.63
2022-09-16T09:54:39.239Z,18.51
2022-09-16T10:04:38.983Z,24.36
2022-09-16T10:14:39.083Z,21.45
2022-09-16T10:24:38.845Z,15.58
2022-09-16T10:34:39.024Z,16.45
2022-09-16T10:44:39.035Z,13.82
2022-09-16T10:54:39.009Z,20.33
2022-09-16T11:04:39.019Z,20.84
2022-09-16T11:14:38.981Z,22.12
2022-09-16T11:24:38.898Z,19.48
2022-09-16T11:34:38.914Z,21.08
2022-09-16T11:44:38.885Z,25.15
2022-09-16T11:54:38.866Z,18.72
2022-09-16T12:04:38.886Z,18.65
2022-09-16T12:14:38.884Z,19.37
2022-09-16T12:24:38.939Z,23.04
2022-09-16T12:34:39.086Z,19.22
2022-09-16T12:44:39.267Z,19.37
2022-09-16T12:54:51.097Z,21.71
2022-09-16T13:04:39.344Z,29.97
2022-09-16T13:14:39.445Z,20.78
2022-09-16T13:24:39.342Z,16.13
2022-09-16T13:34:39.307Z,17.46
2022-09-16T13:44:39.449Z,19.34
2022-09-16T13:54:53.511Z,17.56
2022-09-16T14:04:39.473Z,20.52
2022-09-16T14:14:47.776Z,26.02
2022-09-16T14:24:39.406Z,22.08
2022-09-16T14:34:39.476Z,24.14
2022-09-16T14:44:39.450Z,23.87
2022-09-16T14:54:39.431Z,23.94
2022-09-16T15:04:39.464Z,22.20
2022-09-16T15:14:39.326Z,18.22
2022-09-16T15:24:39.440Z,20.82
2022-09-16T15:34:39.449Z,21.96
2022-09-16T15:44:39.353Z,20.42
2022-09-16T15:54:39.520Z,20.28
2022-09-16T16:04:39.550Z,20.63
2022-09-16T16:14:39.679Z,21.98
2022-09-16T16:24:39.518Z,21.28
2022-09-16T16:34:39.480Z,18.24
2022-09-16T16:44:39.561Z,17.38
2022-09-16T16:54:39.510Z,21.22
2022-09-16T17:04:39.460Z,22.12
2022-09-16T17:14:39.616Z,13.34
2022-09-16T17:24:39.572Z,9.41
2022-09-16T17:34:39.587Z,6.90
2022-09-16T17:44:39.707Z,9.66
2022-09-16T17:54:39.589Z,15.51
2022-09-16T18:04:39.538Z,18.48
2022-09-16T18:14:39.647Z,16.60
2022-09-16T18:24:39.598Z,15.35
2022-09-16T18:34:39.744Z,15.59
2022-09-16T18:44:39.608Z,16.17
2022-09-16T18:54:39.630Z,19.35
2022-09-16T19:04:39.597Z,15.63
2022-09-16T19:14:39.708Z,20.98
